createdAt,value
2018-07-10T06:52:42.903Z,100925.09
2018-07-10T06:55:14.960Z,100931.48
2018-07-10T06:57:52.786Z,100929.64
2018-07-10T07:00:21.892Z,100931.83
2018-07-10T07:02:51.045Z,100936.59
2018-07-10T07:05:20.133Z,100925.53
2018-07-10T07:07:49.471Z,100927.08
2018-07-10T07:10:18.666Z,100929.25
2018-07-10T07:12:48.109Z,100920.23
2018-07-10T07:15:19.033Z,100921.97
2018-07-10T07:17:49.304Z,100919.86
2018-07-10T07:20:20.121Z,100915.22
2018-07-10T07:22:50.281Z,100911.83
2018-07-10T07:25:19.429Z,100909.30
2018-07-10T07:27:48.545Z,100904.55
2018-07-10T07:30:17.729Z,100914.07
2018-07-10T07:32:46.972Z,100915.31
2018-07-10T07:35:16.256Z,100906.76
2018-07-10T07:37:45.381Z,100909.27
2018-07-10T07:40:14.466Z,100909.67
2018-07-10T07:42:43.564Z,100909.78
2018-07-10T07:45:12.676Z,100914.14
2018-07-10T07:47:41.829Z,100907.83
2018-07-10T07:50:10.930Z,100906.60
2018-07-10T07:52:40.137Z,100899.83
2018-07-10T07:55:09.216Z,100901.16
2018-07-10T07:57:38.315Z,100902.88
2018-07-10T08:00:07.438Z,100899.48
2018-07-10T08:02:36.577Z,100898.23
2018-07-10T08:05:05.757Z,100906.33
2018-07-10T08:07:34.857Z,100904.14
2018-07-10T08:10:03.986Z,100902.45
2018-07-10T08:12:33.088Z,100897.33
2018-07-10T08:15:03.616Z,100896.89
2018-07-10T08:17:36.208Z,100896.01
2018-07-10T08:20:06.230Z,100894.33
2018-07-10T08:22:35.354Z,100890.43
2018-07-10T08:25:05.835Z,100887.83
2018-07-10T08:27:36.730Z,100878.86
2018-07-10T08:30:05.958Z,100887.44
2018-07-10T08:32:36.434Z,100882.77
2018-07-10T08:35:05.584Z,100881.93
2018-07-10T08:37:34.673Z,100879.34
2018-07-10T08:40:03.791Z,100878.51
2018-07-10T08:42:32.948Z,100876.37
2018-07-10T08:45:02.102Z,100875.91
2018-07-10T08:47:31.223Z,100873.78
2018-07-10T08:50:00.341Z,100866.95
2018-07-10T08:52:29.456Z,100871.25
2018-07-10T08:54:58.592Z,100856.23
2018-07-10T08:57:28.412Z,100861.41
2018-07-10T08:59:57.915Z,100851.98
2018-07-10T09:02:26.978Z,100846.42
2018-07-10T09:04:56.106Z,100845.55
2018-07-10T09:07:25.224Z,100845.56
2018-07-10T09:09:54.350Z,100843.84
2018-07-10T09:12:23.469Z,100845.55
2018-07-10T09:14:52.618Z,100843.43
2018-07-10T09:17:21.713Z,100847.34
2018-07-10T09:19:50.861Z,100847.72
2018-07-10T09:22:20.005Z,100846.40
2018-07-10T09:24:52.151Z,100845.98
2018-07-10T09:27:30.048Z,100842.52
2018-07-10T09:29:59.204Z,100842.09
2018-07-10T09:32:33.707Z,100841.27
2018-07-10T09:35:02.807Z,100843.83
2018-07-10T09:37:38.237Z,100840.00
2018-07-10T09:40:12.659Z,100836.08
2018-07-10T09:43:15.229Z,100841.62
2018-07-10T09:45:44.369Z,100847.21
2018-07-10T09:48:13.456Z,100838.21
2018-07-10T09:50:42.670Z,100831.78
2018-07-10T09:53:11.803Z,100836.95
2018-07-10T09:55:40.957Z,100836.97
2018-07-10T09:58:11.645Z,100833.97
2018-07-10T10:00:46.013Z,100831.84
2018-07-10T10:03:15.136Z,100818.12
2018-07-10T10:05:45.253Z,100820.25
2018-07-10T10:08:14.380Z,100818.52
2018-07-10T10:10:43.457Z,100822.00
2018-07-10T10:13:12.591Z,100831.05
2018-07-10T10:15:42.009Z,100825.48
2018-07-10T10:18:11.178Z,100826.34
2018-07-10T10:20:41.796Z,100824.19
2018-07-10T10:23:12.973Z,100814.70
2018-07-10T10:25:43.552Z,100813.00
2018-07-10T10:28:12.588Z,100808.32
2018-07-10T10:30:41.676Z,100807.02
2018-07-10T10:33:11.392Z,100807.80
2018-07-10T10:35:40.544Z,100809.55
2018-07-10T10:38:09.620Z,100807.84
2018-07-10T10:40:40.092Z,100803.19
2018-07-10T10:43:12.199Z,100791.59
2018-07-10T10:45:43.912Z,100794.59
2018-07-10T10:48:15.149Z,100791.16
2018-07-10T10:50:51.485Z,100781.72
2018-07-10T10:53:21.455Z,100781.73
2018-07-10T10:55:50.597Z,100782.60
2018-07-10T10:58:21.439Z,100787.72
2018-07-10T11:00:50.629Z,100780.87
2018-07-10T11:03:19.799Z,100779.16
2018-07-10T11:05:48.907Z,100774.86
2018-07-10T11:08:19.418Z,100770.55
2018-07-10T11:10:48.660Z,100772.70
2018-07-10T11:13:18.504Z,100768.00
2018-07-10T11:15:49.757Z,100771.88
2018-07-10T11:18:30.601Z,100765.42
2018-07-10T11:21:37.663Z,100766.70
2018-07-10T11:24:07.402Z,100768.43
2018-07-10T11:26:41.206Z,100765.84
2018-07-10T11:29:10.824Z,100767.98
2018-07-10T11:31:41.264Z,100759.43
2018-07-10T11:34:10.381Z,100765.44
2018-07-10T11:36:39.476Z,100768.45
2018-07-10T11:39:11.273Z,100759.00
2018-07-10T11:41:44.936Z,100762.86
2018-07-10T11:44:14.050Z,100761.56
2018-07-10T11:46:43.131Z,100762.42
2018-07-10T11:49:12.235Z,100767.16
2018-07-10T11:51:41.373Z,100770.13
2018-07-10T11:54:10.485Z,100768.84
2018-07-10T11:56:39.653Z,100777.44
2018-07-10T11:59:08.822Z,100773.14
2018-07-10T12:01:38.973Z,100775.30
2018-07-10T12:04:08.109Z,100769.27
2018-07-10T12:06:45.888Z,100768.42
2018-07-10T12:18:53.713Z,100766.28
2018-07-10T12:21:23.133Z,100757.24
2018-07-10T12:23:52.575Z,100759.86
2018-07-10T12:26:22.542Z,100748.70
2018-07-10T12:28:52.153Z,100743.52
2018-07-10T12:31:21.279Z,100751.72
2018-07-10T12:33:50.365Z,100760.73
2018-07-10T12:36:19.476Z,100755.12
2018-07-10T12:38:48.582Z,100755.12
2018-07-10T12:41:17.680Z,100764.12
2018-07-10T12:43:46.777Z,100773.52
2018-07-10T12:46:15.883Z,100762.39
2018-07-10T12:48:45.008Z,100757.22
2018-07-10T12:51:14.136Z,100769.26
2018-07-10T12:53:43.245Z,100762.39
2018-07-10T12:56:12.535Z,100765.43
2018-07-10T12:58:43.088Z,100767.12
2018-07-10T13:01:12.241Z,100766.27
2018-07-10T13:03:41.349Z,100778.28
2018-07-10T13:06:10.477Z,100787.31
2018-07-10T13:08:39.574Z,100797.16
2018-07-10T13:11:08.699Z,100799.27
2018-07-10T13:13:38.786Z,100784.27
2018-07-10T13:16:08.350Z,100772.67
2018-07-10T13:18:37.771Z,100780.80
2018-07-10T13:21:07.543Z,100769.28
2018-07-10T13:23:37.719Z,100768.43
2018-07-10T13:26:07.737Z,100768.84
2018-07-10T13:28:37.891Z,100760.30
2018-07-10T13:31:07.982Z,100765.02
2018-07-10T13:33:37.580Z,100758.57
2018-07-10T13:36:07.661Z,100749.98
2018-07-10T13:38:36.779Z,100745.67
2018-07-10T13:41:05.872Z,100749.51
2018-07-10T13:43:34.984Z,100753.81
2018-07-10T13:46:04.073Z,100755.09
2018-07-10T13:48:33.176Z,100748.24
2018-07-10T13:51:02.259Z,100752.53
2018-07-10T13:53:31.364Z,100747.39
2018-07-10T13:56:00.478Z,100751.70
2018-07-10T13:58:31.464Z,100746.89
2018-07-10T14:01:08.308Z,100743.38
2018-07-10T14:03:37.933Z,100742.39
2018-07-10T14:06:07.441Z,100745.41
2018-07-10T14:08:36.582Z,100741.97
2018-07-10T14:11:05.688Z,100745.00
2018-07-10T14:13:34.801Z,100748.07
2018-07-10T14:16:03.998Z,100753.68
2018-07-10T14:18:33.123Z,100760.55
2018-07-10T14:21:03.896Z,100759.70
2018-07-10T14:23:33.037Z,100764.89
2018-07-10T14:26:02.140Z,100761.03
2018-07-10T14:28:31.221Z,100759.27
2018-07-10T14:31:00.476Z,100757.54
2018-07-10T14:33:29.565Z,100755.82
2018-07-10T14:35:58.666Z,100768.77
2018-07-10T14:38:29.485Z,100780.42
2018-07-10T14:41:00.269Z,100788.14
2018-07-10T14:43:33.284Z,100780.88
2018-07-10T14:46:07.820Z,100769.27
2018-07-10T14:48:45.694Z,100760.70
2018-07-10T14:51:17.928Z,100756.39
2018-07-10T14:53:47.112Z,100762.83
2018-07-10T14:56:17.021Z,100776.54
2018-07-10T14:58:46.246Z,100784.72
2018-07-10T15:01:16.053Z,100798.45
2018-07-10T15:03:45.124Z,100810.83
2018-07-10T15:06:14.253Z,100810.81
2018-07-10T15:08:43.496Z,100817.20
2018-07-10T15:11:12.612Z,100820.64
2018-07-10T15:13:53.067Z,100822.80
2018-07-10T15:16:22.202Z,100823.20
2018-07-10T15:18:52.312Z,100819.81
2018-07-10T15:21:23.068Z,100807.84
2018-07-10T15:23:52.215Z,100791.16
2018-07-10T15:26:21.339Z,100792.86
2018-07-10T15:28:50.440Z,100785.16
2018-07-10T15:31:19.535Z,100782.57
2018-07-10T15:33:48.630Z,100777.00
2018-07-10T15:36:18.401Z,100778.71
2018-07-10T15:38:47.501Z,100784.30
2018-07-10T15:41:16.712Z,100782.16
2018-07-10T15:43:46.128Z,100774.41
2018-07-10T15:46:15.331Z,100770.97
2018-07-10T15:48:44.428Z,100775.23
2018-07-10T15:51:13.935Z,100779.03
2018-07-10T15:53:43.008Z,100783.70
2018-07-10T15:56:12.128Z,100790.14
2018-07-10T15:58:41.279Z,100790.56
2018-07-10T16:01:10.361Z,100787.96
2018-07-10T16:03:39.457Z,100782.76
2018-07-10T16:06:08.600Z,100782.67
2018-07-10T16:08:38.516Z,100780.92
2018-07-10T16:11:07.671Z,100787.80
2018-07-10T16:13:39.680Z,100789.12
2018-07-10T16:16:10.074Z,100798.23
2018-07-10T16:18:41.396Z,100790.02
2018-07-10T16:21:11.165Z,100793.45
2018-07-10T16:23:40.325Z,100795.14
2018-07-10T16:26:15.108Z,100791.58
2018-07-10T16:28:44.683Z,100799.75
2018-07-10T16:31:18.513Z,100800.54
2018-07-10T16:33:47.596Z,100798.75
2018-07-10T16:36:17.437Z,100803.05
2018-07-10T16:38:46.596Z,100807.45
2018-07-10T16:41:22.633Z,100811.78
2018-07-10T16:43:52.652Z,100819.49
2018-07-10T16:46:24.069Z,100819.66
2018-07-10T16:48:59.276Z,100825.30
2018-07-10T16:51:31.745Z,100824.81
2018-07-10T16:54:01.953Z,100827.86
2018-07-10T16:56:31.049Z,100831.70
2018-07-10T16:59:01.133Z,100841.20
2018-07-10T17:01:30.220Z,100841.69
2018-07-10T17:04:01.330Z,100839.12
2018-07-10T17:06:30.400Z,100841.75
2018-07-10T17:08:59.532Z,100843.48
2018-07-10T17:11:28.608Z,100852.03
2018-07-10T17:13:57.711Z,100849.05
2018-07-10T17:16:27.652Z,100855.07
2018-07-10T17:18:57.018Z,100859.77
2018-07-10T17:21:27.523Z,100854.63
2018-07-10T17:23:57.838Z,100859.34
2018-07-10T17:26:26.912Z,100860.63
2018-07-10T17:28:56.029Z,100861.90
2018-07-10T17:31:25.124Z,100869.16
2018-07-10T17:33:54.243Z,100867.48
2018-07-10T17:36:23.327Z,100868.34
2018-07-10T17:38:52.426Z,100873.50
2018-07-10T17:41:21.529Z,100876.50
2018-07-10T17:43:50.648Z,100876.11
2018-07-10T17:46:19.792Z,100883.39
2018-07-10T17:48:48.915Z,100884.25
2018-07-10T17:51:18.024Z,100881.70
2018-07-10T17:53:47.099Z,100893.70
2018-07-10T17:56:16.219Z,100894.13
2018-07-10T17:58:45.317Z,100900.59
2018-07-10T18:01:14.425Z,100902.72
2018-07-10T18:03:43.512Z,100902.30
2018-07-10T18:06:12.651Z,100916.02
2018-07-10T18:08:41.716Z,100917.31
2018-07-10T18:11:10.848Z,100918.17
2018-07-10T18:13:39.928Z,100923.77
2018-07-10T18:16:09.411Z,100931.47
2018-07-10T18:18:38.484Z,100936.61
2018-07-10T18:21:07.582Z,100946.44
2018-07-10T18:23:36.921Z,100945.09
2018-07-10T18:26:06.041Z,100940.75
2018-07-10T18:28:35.107Z,100950.06
2018-07-10T18:31:04.213Z,100949.89
2018-07-10T18:33:33.292Z,100955.76
2018-07-10T18:36:02.798Z,100954.85
2018-07-10T18:38:31.998Z,100962.97
2018-07-10T18:41:02.151Z,100958.63
2018-07-10T18:43:31.240Z,100970.64
2018-07-10T18:46:00.343Z,100971.87
2018-07-10T18:48:29.627Z,100974.09
2018-07-10T18:50:58.625Z,100975.09
2018-07-10T18:53:27.816Z,100981.52
2018-07-10T18:55:56.956Z,100984.48
2018-07-10T18:58:29.640Z,100987.91
2018-07-10T19:01:04.885Z,100983.69
2018-07-10T19:03:35.574Z,100986.55
2018-07-10T19:06:08.357Z,100993.01
2018-07-10T19:08:38.972Z,100996.45
2018-07-10T19:11:08.751Z,100999.09
2018-07-10T19:13:37.892Z,100996.16
2018-07-10T19:16:06.982Z,100996.56
2018-07-10T19:18:36.109Z,100994.86
2018-07-10T19:21:32.784Z,100997.06
2018-07-10T19:24:05.465Z,100999.22
2018-07-10T19:26:36.668Z,101007.77
2018-07-10T19:29:11.747Z,101006.91
2018-07-10T19:31:40.856Z,101010.75
2018-07-10T19:34:10.021Z,101012.03
2018-07-10T19:36:39.121Z,101012.95
2018-07-10T19:39:08.608Z,101013.80
2018-07-10T19:41:37.692Z,101020.21
2018-07-10T19:44:06.809Z,101032.63
2018-07-10T19:46:36.536Z,101028.66
2018-07-10T19:49:06.444Z,101035.48
2018-07-10T19:51:35.553Z,101029.38
2018-07-10T19:54:08.392Z,101032.76
2018-07-10T19:56:37.614Z,101036.66
2018-07-10T19:59:07.794Z,101036.73
2018-07-10T20:01:50.750Z,101035.52
2018-07-10T20:04:24.809Z,101040.19
2018-07-10T20:07:15.175Z,101041.52
2018-07-10T20:09:47.609Z,101042.39
2018-07-10T20:12:20.284Z,101045.06
2018-07-10T20:14:58.521Z,101050.70
2018-07-10T20:17:31.127Z,101044.28
2018-07-10T20:20:08.536Z,101054.59
2018-07-10T20:23:17.281Z,101046.00
2018-07-10T20:26:03.448Z,101041.67
2018-07-10T20:28:42.237Z,101037.41
2018-07-10T20:31:26.035Z,101038.71
2018-07-10T20:34:51.904Z,101043.86
2018-07-10T20:37:25.974Z,101042.14
2018-07-10T20:39:55.140Z,101023.28
2018-07-10T20:42:24.648Z,101032.28
2018-07-10T20:44:59.747Z,101037.90
2018-07-10T20:47:40.445Z,101040.02
2018-07-10T20:50:09.564Z,101042.16
2018-07-10T20:52:46.596Z,101045.97
2018-07-10T20:55:15.758Z,101039.56
2018-07-10T20:58:00.627Z,101041.31
2018-07-10T21:00:34.726Z,101043.86
2018-07-10T21:04:13.884Z,101051.94
2018-07-10T21:07:01.604Z,101053.63
2018-07-10T21:10:43.960Z,101059.64
2018-07-10T21:13:19.496Z,101060.00
2018-07-10T21:16:02.499Z,101057.05
2018-07-10T21:18:45.552Z,101054.91
2018-07-10T21:21:26.833Z,101059.09
2018-07-10T21:24:02.296Z,101058.19
2018-07-10T21:27:05.468Z,101053.49
2018-07-10T21:29:46.889Z,101056.09
2018-07-10T21:32:28.788Z,101053.52
2018-07-10T21:35:02.081Z,101053.97
2018-07-10T21:37:40.408Z,101055.66
2018-07-10T21:40:24.486Z,101062.86
2018-07-10T21:43:10.365Z,101069.55
2018-07-10T21:45:58.201Z,101073.83
2018-07-10T21:48:40.597Z,101071.69
2018-07-10T21:51:09.748Z,101075.49
2018-07-10T21:53:38.876Z,101081.05
2018-07-10T21:56:08.054Z,101084.41
2018-07-10T21:58:37.237Z,101093.40
2018-07-10T22:01:49.805Z,101089.94
2018-07-10T22:04:21.031Z,101085.14
2018-07-10T22:06:52.415Z,101081.89
2018-07-10T22:09:23.953Z,101088.80
2018-07-10T22:11:53.374Z,101087.08
2018-07-10T22:14:22.661Z,101083.63
2018-07-10T22:16:51.776Z,101083.56
2018-07-10T22:19:25.618Z,101084.08
2018-07-10T22:21:55.603Z,101083.28
2018-07-10T22:24:26.168Z,101089.77
2018-07-10T22:26:58.037Z,101090.64
2018-07-10T22:29:32.876Z,101092.34
2018-07-10T22:32:06.160Z,101094.86
2018-07-10T22:34:35.287Z,101088.89
2018-07-10T22:37:04.392Z,101097.48
2018-07-10T22:39:33.837Z,101096.65
2018-07-10T22:42:02.973Z,101098.34
2018-07-10T22:44:35.396Z,101093.16
2018-07-10T22:47:05.201Z,101092.27
2018-07-10T22:49:34.260Z,101091.39
2018-07-10T22:52:04.053Z,101102.44
2018-07-10T22:54:34.860Z,101098.00
2018-07-10T22:57:06.400Z,101093.62
2018-07-10T22:59:35.477Z,101098.39
2018-07-10T23:02:04.572Z,101095.84
2018-07-10T23:04:33.376Z,101094.89
2018-07-10T23:07:02.203Z,101091.10
2018-07-10T23:09:31.006Z,101089.42
2018-07-10T23:11:59.908Z,101089.42
2018-07-10T23:14:28.721Z,101085.90
2018-07-10T23:16:57.584Z,101082.06
2018-07-10T23:19:27.278Z,101079.16
2018-07-10T23:21:56.088Z,101085.13
2018-07-10T23:24:24.904Z,101081.72
2018-07-10T23:26:53.706Z,101093.42
2018-07-10T23:29:35.912Z,101089.64
2018-07-10T23:32:05.970Z,101084.53
2018-07-10T23:34:34.800Z,101080.71
2018-07-10T23:37:05.480Z,101078.55
2018-07-10T23:39:45.135Z,101077.58
2018-07-10T23:42:37.163Z,101072.38
2018-07-10T23:45:09.888Z,101079.62
2018-07-10T23:47:40.792Z,101075.81
2018-07-10T23:50:17.491Z,101078.79
2018-07-10T23:53:52.868Z,101076.24
2018-07-10T23:56:22.144Z,101068.38
2018-07-10T23:58:51.567Z,101076.56
